createdAt,value
2023-03-11T00:00:36.472Z,97573.09
2023-03-11T00:03:06.465Z,97571.41
2023-03-11T00:05:36.037Z,97587.00
2023-03-11T00:08:04.463Z,97570.31
2023-03-11T00:10:33.065Z,97594.44
2023-03-11T00:13:00.577Z,97605.94
2023-03-11T00:15:28.744Z,97596.81
2023-03-11T00:17:55.738Z,97604.94
2023-03-11T00:20:26.032Z,97607.63
2023-03-11T00:22:53.082Z,97628.88
2023-03-11T00:25:20.731Z,97622.41
2023-03-11T00:27:47.386Z,97625.69
2023-03-11T00:30:15.983Z,97629.16
2023-03-11T00:32:42.775Z,97631.63
2023-03-11T00:35:12.721Z,97638.59
2023-03-11T00:37:40.702Z,97631.94
2023-03-11T00:40:11.754Z,97650.97
2023-03-11T00:42:38.354Z,97659.63
2023-03-11T00:45:05.917Z,97653.97
2023-03-11T00:47:32.590Z,97642.19
2023-03-11T00:49:59.230Z,97660.41
2023-03-11T00:52:26.078Z,97664.34
2023-03-11T00:54:54.163Z,97669.25
2023-03-11T00:57:20.715Z,97676.19
2023-03-11T00:59:47.316Z,97674.91
2023-03-11T01:02:13.909Z,97671.91
2023-03-11T01:04:40.569Z,97674.31
2023-03-11T01:07:07.262Z,97686.91
2023-03-11T01:09:33.864Z,97682.41
2023-03-11T01:12:01.815Z,97684.22
2023-03-11T01:14:28.602Z,97689.25
2023-03-11T01:16:55.209Z,97684.59
2023-03-11T01:19:21.749Z,97691.53
2023-03-11T01:21:48.541Z,97696.50
2023-03-11T01:24:15.261Z,97706.22
2023-03-11T01:26:41.816Z,97715.34
2023-03-11T01:29:09.719Z,97724.16
2023-03-11T01:31:36.425Z,97731.88
2023-03-11T01:34:03.075Z,97736.78
2023-03-11T01:36:29.632Z,97740.53
2023-03-11T01:38:56.234Z,97753.81
2023-03-11T01:41:22.953Z,97730.00
2023-03-11T01:43:52.253Z,97749.84
2023-03-11T01:46:22.113Z,97754.09
2023-03-11T01:48:50.204Z,97758.66
2023-03-11T01:51:22.632Z,97751.25
2023-03-11T01:53:49.364Z,97763.53
2023-03-11T01:56:16.181Z,97767.88
2023-03-11T01:58:46.129Z,97772.44
2023-03-11T02:01:13.131Z,97774.91
2023-03-11T02:03:42.463Z,97773.53
2023-03-11T02:06:11.581Z,97782.94
2023-03-11T02:08:40.758Z,97783.81
2023-03-11T02:11:10.815Z,97782.25
2023-03-11T02:13:40.849Z,97781.72
2023-03-11T02:16:07.918Z,97780.13
2023-03-11T02:18:35.388Z,97785.50
2023-03-11T02:21:14.467Z,97785.81
2023-03-11T02:23:48.564Z,97776.19
2023-03-11T02:26:20.950Z,97782.91
2023-03-11T02:28:50.566Z,97791.22
2023-03-11T02:31:17.384Z,97793.41
2023-03-11T02:33:46.526Z,97807.38
2023-03-11T02:36:34.708Z,97800.94
2023-03-11T02:39:01.300Z,97810.06
2023-03-11T02:41:29.926Z,97822.13
2023-03-11T02:43:58.906Z,97817.06
2023-03-11T02:46:26.060Z,97824.81
2023-03-11T02:48:54.199Z,97830.72
2023-03-11T02:51:20.950Z,97830.25
2023-03-11T02:53:50.587Z,97847.88
2023-03-11T02:56:17.405Z,97842.50
2023-03-11T02:58:43.951Z,97847.06
2023-03-11T03:01:12.052Z,97844.91
2023-03-11T03:03:38.782Z,97855.41
2023-03-11T03:06:06.160Z,97849.75
2023-03-11T03:08:32.952Z,97862.56
2023-03-11T03:10:59.486Z,97873.25
2023-03-11T03:13:26.327Z,97873.34
2023-03-11T03:15:52.851Z,97867.09
2023-03-11T03:18:21.177Z,97872.25
2023-03-11T03:20:47.885Z,97875.50
2023-03-11T03:23:14.438Z,97878.19
2023-03-11T03:25:42.580Z,97892.88
2023-03-11T03:28:09.348Z,97878.19
2023-03-11T03:30:35.942Z,97875.22
2023-03-11T03:33:02.604Z,97888.59
2023-03-11T03:35:30.999Z,97890.75
2023-03-11T03:37:57.538Z,97896.41
2023-03-11T03:40:24.631Z,97906.59
2023-03-11T03:42:51.175Z,97909.06
2023-03-11T03:45:17.995Z,97908.53
2023-03-11T03:47:44.575Z,97908.03
2023-03-11T03:50:12.521Z,97917.72
2023-03-11T03:52:40.422Z,97924.38
2023-03-11T03:55:07.553Z,97926.03
2023-03-11T03:57:34.090Z,97927.13
2023-03-11T04:00:00.603Z,97936.50
2023-03-11T04:02:27.235Z,97943.22
2023-03-11T04:04:53.789Z,97942.44
2023-03-11T04:07:20.353Z,97946.19
2023-03-11T04:09:48.338Z,97945.59
2023-03-11T04:12:15.367Z,97945.88
2023-03-11T04:14:42.224Z,97940.84
2023-03-11T04:17:10.637Z,97942.13
2023-03-11T04:19:37.257Z,97943.53
2023-03-11T04:22:03.821Z,97947.78
2023-03-11T04:24:30.571Z,97957.69
2023-03-11T04:26:58.423Z,97955.22
2023-03-11T04:29:24.940Z,97956.31
2023-03-11T04:31:51.512Z,97958.50
2023-03-11T04:34:18.246Z,97960.66
2023-03-11T04:36:44.770Z,97959.56
2023-03-11T04:39:11.408Z,97967.38
2023-03-11T04:41:38.043Z,97966.84
2023-03-11T04:44:05.964Z,97976.47
2023-03-11T04:46:32.732Z,97980.22
2023-03-11T04:48:59.292Z,97976.75
2023-03-11T04:51:25.854Z,97983.47
2023-03-11T04:53:52.390Z,97984.56
2023-03-11T04:56:18.941Z,97991.53
2023-03-11T04:58:45.486Z,97999.34
2023-03-11T05:01:13.436Z,97997.53
2023-03-11T05:03:40.042Z,97986.81
2023-03-11T05:06:07.100Z,97999.91
2023-03-11T05:08:33.812Z,97996.44
2023-03-11T05:11:00.416Z,98004.50
2023-03-11T05:13:27.197Z,98005.59
2023-03-11T05:15:54.024Z,98005.88
2023-03-11T05:18:21.997Z,98003.78
2023-03-11T05:20:48.561Z,98003.53
2023-03-11T05:23:15.126Z,98006.78
2023-03-11T05:25:41.813Z,98012.13
2023-03-11T05:28:08.456Z,98021.50
2023-03-11T05:30:35.043Z,98032.47
2023-03-11T05:33:01.630Z,98030.88
2023-03-11T05:35:29.686Z,98030.59
2023-03-11T05:37:56.257Z,98033.78
2023-03-11T05:40:22.913Z,98041.81
2023-03-11T05:42:49.648Z,98039.94
2023-03-11T05:45:16.301Z,98053.56
2023-03-11T05:47:43.010Z,98055.41
2023-03-11T05:50:11.343Z,98046.81
2023-03-11T05:52:39.403Z,98051.88
2023-03-11T05:55:06.831Z,98054.84
2023-03-11T05:57:33.368Z,98058.81
2023-03-11T05:59:59.908Z,98051.31
2023-03-11T06:02:26.492Z,98065.97
2023-03-11T06:04:53.209Z,98061.75
2023-03-11T06:07:19.912Z,98073.25
2023-03-11T06:09:50.174Z,98075.38
2023-03-11T06:12:16.683Z,98079.41
2023-03-11T06:14:43.253Z,98082.34
2023-03-11T06:17:09.852Z,98077.25
2023-03-11T06:19:36.487Z,98093.03
2023-03-11T06:22:03.055Z,98105.34
2023-03-11T06:24:29.619Z,98110.97
2023-03-11T06:26:57.572Z,98117.09
2023-03-11T06:29:24.315Z,98118.19
2023-03-11T06:31:51.182Z,98117.34
2023-03-11T06:34:19.854Z,98118.66
2023-03-11T06:36:46.387Z,98123.44
2023-03-11T06:39:13.922Z,98117.28
2023-03-11T06:41:43.203Z,98119.34
2023-03-11T06:44:11.596Z,98128.97
2023-03-11T06:46:38.411Z,98129.22
2023-03-11T06:49:05.080Z,98133.47
2023-03-11T06:51:31.849Z,98131.59
2023-03-11T06:53:58.453Z,98150.81
2023-03-11T06:56:25.383Z,98154.06
2023-03-11T06:58:53.349Z,98158.28
2023-03-11T07:01:22.656Z,98159.34
2023-03-11T07:03:50.424Z,98148.34
2023-03-11T07:06:18.108Z,98166.78
2023-03-11T07:08:46.398Z,98169.88
2023-03-11T07:11:15.504Z,98169.81
2023-03-11T07:13:42.627Z,98172.97
2023-03-11T07:16:11.878Z,98171.03
2023-03-11T07:18:39.929Z,98173.25
2023-03-11T07:21:08.095Z,98177.25
2023-03-11T07:23:35.970Z,98173.00
2023-03-11T07:26:02.554Z,98174.31
2023-03-11T07:28:29.593Z,98185.38
2023-03-11T07:30:56.446Z,98177.97
2023-03-11T07:33:23.531Z,98187.28
2023-03-11T07:35:52.091Z,98192.00
2023-03-11T07:38:19.830Z,98203.94
2023-03-11T07:40:46.678Z,98201.50
2023-03-11T07:43:13.323Z,98204.84
2023-03-11T07:45:39.940Z,98214.00
2023-03-11T07:48:06.636Z,98222.13
2023-03-11T07:50:33.245Z,98222.84
2023-03-11T07:53:01.104Z,98218.38
2023-03-11T07:55:27.839Z,98221.13
2023-03-11T07:57:54.437Z,98232.78
2023-03-11T08:00:21.523Z,98234.78
2023-03-11T08:02:48.249Z,98231.16
2023-03-11T08:05:14.849Z,98247.25
2023-03-11T08:07:41.407Z,98240.84
2023-03-11T08:10:10.875Z,98248.50
2023-03-11T08:12:37.399Z,98249.09
2023-03-11T08:15:04.751Z,98246.97
2023-03-11T08:17:31.284Z,98257.19
2023-03-11T08:19:57.993Z,98260.53
2023-03-11T08:22:24.519Z,98258.41
2023-03-11T08:24:54.084Z,98270.03
2023-03-11T08:27:22.004Z,98265.59
2023-03-11T08:29:48.537Z,98284.16
2023-03-11T08:32:15.248Z,98280.28
2023-03-11T08:34:41.828Z,98292.09
2023-03-11T08:37:08.502Z,98287.31
2023-03-11T08:39:35.095Z,98302.56
2023-03-11T08:42:02.293Z,98309.84
2023-03-11T08:44:30.257Z,98308.47
2023-03-11T08:46:57.035Z,98309.44
2023-03-11T08:49:23.868Z,98304.34
2023-03-11T08:51:50.524Z,98302.25
2023-03-11T08:54:17.303Z,98314.75
2023-03-11T08:56:43.854Z,98316.06
2023-03-11T08:59:10.411Z,98318.38
2023-03-11T09:01:38.487Z,98322.66
2023-03-11T09:04:05.419Z,98325.94
2023-03-11T09:06:32.193Z,98333.22
2023-03-11T09:08:58.857Z,98327.72
2023-03-11T09:11:25.915Z,98338.97
2023-03-11T09:13:52.494Z,98342.31
2023-03-11T09:16:21.833Z,98337.22
2023-03-11T09:18:49.944Z,98343.72
2023-03-11T09:21:16.846Z,98326.31
2023-03-11T09:23:44.486Z,98345.06
2023-03-11T09:26:11.365Z,98338.13
2023-03-11T09:28:38.315Z,98339.19
2023-03-11T09:31:05.081Z,98340.28
2023-03-11T09:33:31.875Z,98351.00
2023-03-11T09:35:59.871Z,98355.50
2023-03-11T09:38:26.430Z,98348.84
2023-03-11T09:40:59.316Z,98358.53
2023-03-11T09:43:43.180Z,98357.78
2023-03-11T09:46:26.307Z,98365.56
2023-03-11T09:49:00.649Z,98370.06
2023-03-11T09:51:32.665Z,98365.38
2023-03-11T09:54:03.830Z,98364.50
2023-03-11T09:56:34.244Z,98367.47
2023-03-11T09:59:04.760Z,98371.66
2023-03-11T10:01:34.363Z,98369.47
2023-03-11T10:04:08.009Z,98371.28
2023-03-11T10:06:36.611Z,98375.53
2023-03-11T10:09:15.727Z,98373.22
2023-03-11T10:11:51.096Z,98383.78
2023-03-11T10:14:37.700Z,98378.72
2023-03-11T10:17:14.518Z,98376.13
2023-03-11T10:19:48.200Z,98370.56
2023-03-11T10:22:26.767Z,98368.06
2023-03-11T10:25:03.128Z,98383.22
2023-03-11T10:27:35.402Z,98379.59
2023-03-11T10:30:07.107Z,98384.75
2023-03-11T10:32:41.066Z,98383.13
2023-03-11T10:35:16.951Z,98385.47
2023-03-11T10:37:51.456Z,98376.72
2023-03-11T10:40:24.561Z,98380.69
2023-03-11T10:42:53.767Z,98386.19
2023-03-11T10:45:21.659Z,98379.50
2023-03-11T10:47:48.329Z,98375.50
2023-03-11T10:50:16.835Z,98379.38
2023-03-11T10:53:01.500Z,98372.56
2023-03-11T10:55:28.019Z,98378.78
2023-03-11T10:58:05.578Z,98382.09
2023-03-11T11:00:32.277Z,98385.00
2023-03-11T11:02:58.900Z,98383.47
2023-03-11T11:05:31.342Z,98395.19
2023-03-11T11:08:07.603Z,98393.53
2023-03-11T11:10:37.791Z,98389.09
2023-03-11T11:13:18.562Z,98391.03
2023-03-11T11:15:53.562Z,98389.81
2023-03-11T11:18:23.594Z,98394.47
2023-03-11T11:20:59.443Z,98393.97
2023-03-11T11:23:31.945Z,98403.03
2023-03-11T11:25:59.896Z,98401.56
2023-03-11T11:28:26.567Z,98405.56
2023-03-11T11:30:55.373Z,98409.41
2023-03-11T11:33:25.138Z,98404.59
2023-03-11T11:35:53.996Z,98412.47
2023-03-11T11:38:22.649Z,98411.72
2023-03-11T11:40:51.397Z,98406.53
2023-03-11T11:43:22.316Z,98409.81
2023-03-11T11:45:55.215Z,98403.91
2023-03-11T11:48:29.093Z,98408.09
2023-03-11T11:50:59.255Z,98406.81
2023-03-11T11:53:34.961Z,98406.69
2023-03-11T11:56:03.572Z,98401.94
2023-03-11T11:58:30.789Z,98400.53
2023-03-11T12:01:15.028Z,98406.78
2023-03-11T12:04:26.896Z,98406.56
2023-03-11T12:07:04.125Z,98400.59
2023-03-11T12:09:38.408Z,98406.69
2023-03-11T12:12:16.562Z,98407.06
2023-03-11T12:14:49.721Z,98411.00
2023-03-11T12:17:19.780Z,98409.44
2023-03-11T12:19:52.805Z,98416.00
2023-03-11T12:22:40.945Z,98407.09
2023-03-11T12:25:24.186Z,98410.66
2023-03-11T12:27:59.825Z,98410.81
2023-03-11T12:30:29.832Z,98407.59
2023-03-11T12:33:00.666Z,98407.66
2023-03-11T12:35:29.303Z,98408.25
2023-03-11T12:38:05.176Z,98413.69
2023-03-11T12:40:50.224Z,98418.06
2023-03-11T12:43:26.954Z,98423.22
2023-03-11T12:45:54.021Z,98405.41
2023-03-11T12:48:34.987Z,98416.69
2023-03-11T12:51:02.147Z,98411.00
2023-03-11T12:53:46.836Z,98410.56
2023-03-11T12:56:29.862Z,98412.00
2023-03-11T12:59:35.676Z,98401.25
2023-03-11T13:02:19.985Z,98404.25
2023-03-11T13:04:56.447Z,98406.06
2023-03-11T13:07:48.166Z,98401.47
2023-03-11T13:10:33.444Z,98411.41
2023-03-11T13:13:00.277Z,98405.25
2023-03-11T13:15:37.481Z,98415.78
2023-03-11T13:18:16.617Z,98412.16
2023-03-11T13:21:01.998Z,98414.75
2023-03-11T13:23:39.051Z,98414.25
2023-03-11T13:26:16.473Z,98419.28
2023-03-11T13:29:03.937Z,98418.97
2023-03-11T13:31:43.740Z,98424.59
2023-03-11T13:34:16.275Z,98430.47
2023-03-11T13:37:08.687Z,98426.53
2023-03-11T13:39:58.148Z,98418.06
2023-03-11T13:42:30.214Z,98429.00
2023-03-11T13:44:58.084Z,98435.97
2023-03-11T13:47:27.291Z,98443.59
2023-03-11T13:50:00.589Z,98446.06
2023-03-11T13:52:31.537Z,98446.16
2023-03-11T13:55:03.266Z,98455.84
2023-03-11T13:57:31.240Z,98462.88
2023-03-11T14:00:04.357Z,98458.25
2023-03-11T14:02:32.467Z,98464.75
2023-03-11T14:05:05.252Z,98481.44
2023-03-11T14:07:33.834Z,98481.03
2023-03-11T14:10:21.323Z,98477.81
2023-03-11T14:12:48.514Z,98479.72
2023-03-11T14:15:20.558Z,98475.75
2023-03-11T14:17:48.951Z,98479.28
2023-03-11T14:20:17.262Z,98471.22
2023-03-11T14:22:45.536Z,98481.47
2023-03-11T14:25:18.144Z,98479.69
2023-03-11T14:27:50.489Z,98483.88
2023-03-11T14:30:20.715Z,98476.59
2023-03-11T14:32:58.911Z,98480.34
2023-03-11T14:35:26.411Z,98480.81
2023-03-11T14:37:53.062Z,98478.94
2023-03-11T14:40:24.451Z,98478.09
2023-03-11T14:42:52.679Z,98475.56
2023-03-11T14:45:21.723Z,98463.44
2023-03-11T14:47:53.580Z,98448.94
2023-03-11T14:50:24.401Z,98448.94
2023-03-11T14:52:55.524Z,98462.59
2023-03-11T14:55:25.444Z,98468.91
2023-03-11T14:57:55.131Z,98474.25
2023-03-11T15:00:24.313Z,98467.19
2023-03-11T15:03:01.013Z,98462.13
2023-03-11T15:05:35.885Z,98465.16
2023-03-11T15:08:04.917Z,98461.19
2023-03-11T15:10:31.712Z,98467.44
2023-03-11T15:13:10.705Z,98466.09
2023-03-11T15:15:37.268Z,98464.38
2023-03-11T15:18:19.368Z,98462.63
2023-03-11T15:21:00.530Z,98459.25
2023-03-11T15:23:27.192Z,98463.19
2023-03-11T15:25:53.858Z,98464.19
2023-03-11T15:28:22.497Z,98468.53
2023-03-11T15:30:49.265Z,98468.88
2023-03-11T15:33:24.052Z,98464.47
2023-03-11T15:35:52.059Z,98465.38
2023-03-11T15:38:21.758Z,98475.59
2023-03-11T15:40:53.688Z,98481.47
2023-03-11T15:43:24.033Z,98481.84
2023-03-11T15:45:51.896Z,98484.38
2023-03-11T15:48:18.431Z,98488.28
2023-03-11T15:50:53.940Z,98485.78
2023-03-11T15:53:23.661Z,98489.75
2023-03-11T15:55:51.397Z,98491.63
2023-03-11T15:58:19.799Z,98491.91
2023-03-11T16:00:49.091Z,98497.19
2023-03-11T16:03:16.209Z,98498.13
2023-03-11T16:05:42.978Z,98502.44
2023-03-11T16:08:10.058Z,98505.34
2023-03-11T16:10:38.446Z,98522.09
2023-03-11T16:13:05.723Z,98513.53
2023-03-11T16:15:34.855Z,98515.88
2023-03-11T16:18:03.176Z,98527.41
2023-03-11T16:20:33.948Z,98521.50
2023-03-11T16:23:00.849Z,98519.00
2023-03-11T16:25:30.969Z,98530.75
2023-03-11T16:27:59.494Z,98522.97
2023-03-11T16:30:27.574Z,98527.25
2023-03-11T16:32:54.236Z,98524.63
2023-03-11T16:35:20.843Z,98519.88
2023-03-11T16:37:47.737Z,98528.38
2023-03-11T16:40:16.935Z,98531.91
2023-03-11T16:42:43.984Z,98531.31
2023-03-11T16:45:12.896Z,98536.78
2023-03-11T16:47:39.456Z,98529.63
2023-03-11T16:50:07.138Z,98538.91
2023-03-11T16:52:34.109Z,98531.81
2023-03-11T16:55:00.980Z,98533.19
2023-03-11T16:57:27.803Z,98528.47
2023-03-11T16:59:54.359Z,98531.44
2023-03-11T17:02:24.520Z,98532.53
2023-03-11T17:04:51.259Z,98538.38
2023-03-11T17:07:17.884Z,98535.06
2023-03-11T17:09:44.470Z,98534.63
2023-03-11T17:12:10.986Z,98533.56
2023-03-11T17:14:37.670Z,98540.22
2023-03-11T17:17:04.410Z,98541.22
2023-03-11T17:19:32.516Z,98543.59
2023-03-11T17:21:59.113Z,98546.13
2023-03-11T17:24:25.657Z,98554.94
2023-03-11T17:26:52.234Z,98549.78
2023-03-11T17:29:18.795Z,98560.91
2023-03-11T17:31:45.519Z,98557.88
2023-03-11T17:34:12.153Z,98570.06
2023-03-11T17:36:40.160Z,98559.69
2023-03-11T17:39:06.890Z,98568.16
2023-03-11T17:41:33.425Z,98570.69
2023-03-11T17:44:00.167Z,98568.56
2023-03-11T17:46:26.791Z,98575.34
2023-03-11T17:48:53.562Z,98572.78
2023-03-11T17:51:22.097Z,98579.81
2023-03-11T17:53:50.225Z,98579.06
2023-03-11T17:56:19.007Z,98580.47
2023-03-11T17:58:45.543Z,98584.81
2023-03-11T18:01:14.184Z,98577.88
2023-03-11T18:03:41.105Z,98591.84
2023-03-11T18:06:08.447Z,98588.41
2023-03-11T18:08:35.862Z,98597.00
2023-03-11T18:11:08.334Z,98593.00
2023-03-11T18:13:36.324Z,98597.81
2023-03-11T18:16:05.313Z,98605.84
2023-03-11T18:18:35.357Z,98608.53
2023-03-11T18:21:02.250Z,98610.44
2023-03-11T18:23:28.933Z,98609.66
2023-03-11T18:25:55.507Z,98610.19
2023-03-11T18:28:23.399Z,98622.25
2023-03-11T18:30:50.025Z,98619.03
2023-03-11T18:33:16.586Z,98619.88
2023-03-11T18:35:43.102Z,98615.84
2023-03-11T18:38:09.701Z,98615.31
2023-03-11T18:40:36.277Z,98613.97
2023-03-11T18:43:03.239Z,98612.66
2023-03-11T18:45:31.324Z,98613.19
2023-03-11T18:47:57.918Z,98617.50
2023-03-11T18:50:24.651Z,98620.16
2023-03-11T18:52:51.952Z,98615.06
2023-03-11T18:55:18.606Z,98622.56
2023-03-11T18:57:45.399Z,98614.81
2023-03-11T19:00:12.905Z,98620.41
2023-03-11T19:02:40.855Z,98622.28
2023-03-11T19:05:08.052Z,98623.34
2023-03-11T19:07:34.624Z,98618.28
2023-03-11T19:10:01.315Z,98617.47
2023-03-11T19:12:28.046Z,98619.59
2023-03-11T19:14:54.580Z,98620.16
2023-03-11T19:17:21.115Z,98617.47
2023-03-11T19:19:49.183Z,98617.19
2023-03-11T19:22:15.935Z,98622.25
2023-03-11T19:24:42.545Z,98620.38
2023-03-11T19:27:09.129Z,98626.00
2023-03-11T19:29:35.703Z,98621.69
2023-03-11T19:32:03.536Z,98625.41
2023-03-11T19:34:30.377Z,98631.53
2023-03-11T19:36:58.346Z,98634.19
2023-03-11T19:39:24.905Z,98630.19
2023-03-11T19:41:51.463Z,98634.16
2023-03-11T19:44:18.017Z,98636.53
2023-03-11T19:46:44.732Z,98640.56
2023-03-11T19:49:11.391Z,98641.56
2023-03-11T19:51:49.259Z,98644.50
2023-03-11T19:54:18.076Z,98649.03
2023-03-11T19:56:45.008Z,98646.34
2023-03-11T19:59:11.681Z,98643.69
2023-03-11T20:01:38.351Z,98644.97
2023-03-11T20:04:05.384Z,98646.56
2023-03-11T20:06:32.138Z,98637.19
2023-03-11T20:08:58.878Z,98649.66
2023-03-11T20:11:26.958Z,98644.63
2023-03-11T20:13:53.496Z,98638.44
2023-03-11T20:16:20.171Z,98639.50
2023-03-11T20:18:49.157Z,98646.16
2023-03-11T20:21:15.787Z,98644.50
2023-03-11T20:23:42.360Z,98642.63
2023-03-11T20:26:11.355Z,98643.94
2023-03-11T20:28:39.528Z,98643.38
2023-03-11T20:31:10.927Z,98645.78
2023-03-11T20:33:38.457Z,98646.53
2023-03-11T20:36:06.697Z,98650.50
2023-03-11T20:38:33.337Z,98655.56
2023-03-11T20:41:00.017Z,98647.50
2023-03-11T20:43:26.865Z,98654.44
2023-03-11T20:45:54.763Z,98654.13
2023-03-11T20:48:21.375Z,98659.97
2023-03-11T20:50:48.222Z,98665.25
2023-03-11T20:53:15.405Z,98667.88
2023-03-11T20:55:42.198Z,98672.34
2023-03-11T20:58:08.743Z,98666.22
2023-03-11T21:00:35.887Z,98670.72
2023-03-11T21:03:03.922Z,98674.41
2023-03-11T21:05:35.465Z,98671.72
2023-03-11T21:08:02.435Z,98663.19
2023-03-11T21:10:29.955Z,98667.69
2023-03-11T21:12:56.660Z,98671.66
2023-03-11T21:15:23.378Z,98670.38
2023-03-11T21:17:52.567Z,98662.88
2023-03-11T21:20:20.931Z,98664.97
2023-03-11T21:22:47.596Z,98664.94
2023-03-11T21:25:14.282Z,98661.72
2023-03-11T21:27:40.864Z,98671.81
2023-03-11T21:30:08.840Z,98671.53
2023-03-11T21:32:35.728Z,98667.00
2023-03-11T21:35:02.803Z,98668.31
2023-03-11T21:37:31.010Z,98687.19
2023-03-11T21:39:57.598Z,98678.34
2023-03-11T21:42:24.469Z,98679.66
2023-03-11T21:44:51.128Z,98679.91
2023-03-11T21:47:18.189Z,98679.38
2023-03-11T21:49:44.812Z,98673.72
2023-03-11T21:52:11.602Z,98665.44
2023-03-11T21:54:39.668Z,98677.66
2023-03-11T21:57:06.342Z,98679.41
2023-03-11T21:59:32.975Z,98684.47
2023-03-11T22:01:59.671Z,98690.03
2023-03-11T22:04:26.380Z,98685.75
2023-03-11T22:06:54.871Z,98687.59
2023-03-11T22:09:23.052Z,98692.38
2023-03-11T22:11:51.293Z,98693.69
2023-03-11T22:14:18.044Z,98684.09
2023-03-11T22:16:44.884Z,98688.03
2023-03-11T22:19:11.563Z,98687.47
2023-03-11T22:21:38.183Z,98691.69
2023-03-11T22:24:05.243Z,98685.34
2023-03-11T22:26:32.048Z,98692.75
2023-03-11T22:29:01.825Z,98688.72
2023-03-11T22:31:29.819Z,98686.31
2023-03-11T22:33:57.279Z,98681.50
2023-03-11T22:36:23.998Z,98692.38
2023-03-11T22:38:50.530Z,98695.75
2023-03-11T22:41:17.235Z,98689.88
2023-03-11T22:43:43.809Z,98688.78
2023-03-11T22:46:11.848Z,98690.88
2023-03-11T22:48:38.504Z,98695.63
2023-03-11T22:51:06.222Z,98703.31
2023-03-11T22:53:32.766Z,98696.38
2023-03-11T22:55:59.321Z,98692.34
2023-03-11T22:58:25.911Z,98689.13
2023-03-11T23:00:52.470Z,98694.69
2023-03-11T23:03:20.437Z,98689.63
2023-03-11T23:05:46.998Z,98701.06
2023-03-11T23:08:15.411Z,98696.56
2023-03-11T23:10:43.445Z,98693.00
2023-03-11T23:13:10.944Z,98695.38
2023-03-11T23:15:40.510Z,98700.13
2023-03-11T23:18:07.428Z,98699.56
2023-03-11T23:20:37.158Z,98704.81
2023-03-11T23:23:04.258Z,98709.31
2023-03-11T23:25:31.109Z,98702.63
2023-03-11T23:27:57.705Z,98706.09
2023-03-11T23:30:24.715Z,98699.63
2023-03-11T23:32:51.347Z,98699.88
2023-03-11T23:35:18.177Z,98697.16
2023-03-11T23:37:49.641Z,98698.44
2023-03-11T23:40:16.904Z,98702.41
2023-03-11T23:42:43.710Z,98701.84
2023-03-11T23:45:11.134Z,98698.13
2023-03-11T23:47:37.656Z,98698.38
2023-03-11T23:50:05.132Z,98709.81
2023-03-11T23:52:31.825Z,98704.50
2023-03-11T23:54:59.993Z,98705.06
2023-03-11T23:57:26.587Z,98708.50
2023-03-11T23:59:53.440Z,98707.78
